createdAt,value
2019-06-01T00:00:11.835Z,101283.06
2019-06-01T00:01:15.215Z,101283.75
2019-06-01T00:02:18.401Z,101283.41
2019-06-01T00:03:19.799Z,101290.13
2019-06-01T00:04:21.331Z,101287.44
2019-06-01T00:05:22.725Z,101285.75
2019-06-01T00:06:24.225Z,101283.06
2019-06-01T00:07:25.610Z,101284.58
2019-06-01T00:08:26.991Z,101284.92
2019-06-01T00:09:28.629Z,101283.06
2019-06-01T00:10:29.896Z,101283.23
2019-06-01T00:11:31.277Z,101284.41
2019-06-01T00:12:34.477Z,101284.92
2019-06-01T00:13:35.870Z,101279.38
2019-06-01T00:14:37.284Z,101288.44
2019-06-01T00:15:39.872Z,101287.95
2019-06-01T00:16:42.037Z,101287.95
2019-06-01T00:17:43.881Z,101291.99
2019-06-01T00:18:46.032Z,101288.79
2019-06-01T00:19:48.231Z,101292.82
2019-06-01T00:20:50.725Z,101288.79
2019-06-01T00:21:54.314Z,101293.17
2019-06-01T00:22:55.820Z,101295.86
2019-06-01T00:23:57.424Z,101297.72
2019-06-01T00:24:58.993Z,101301.23
2019-06-01T00:26:00.480Z,101295.51
2019-06-01T00:27:01.877Z,101295.51
2019-06-01T00:28:03.268Z,101294.02
2019-06-01T00:29:04.853Z,101295.86
2019-06-01T00:30:06.565Z,101297.20
2019-06-01T00:31:08.032Z,101294.51
2019-06-01T00:32:09.438Z,101295.86
2019-06-01T00:33:11.729Z,101288.30
2019-06-01T00:34:13.114Z,101282.06
2019-06-01T00:35:14.529Z,101279.38
2019-06-01T00:36:16.401Z,101266.10
2019-06-01T00:37:17.793Z,101256.17
2019-06-01T00:38:19.184Z,101257.17
2019-06-01T00:39:20.560Z,101261.72
2019-06-01T00:40:22.326Z,101268.45
2019-06-01T00:41:23.694Z,101278.00
2019-06-01T00:42:26.066Z,101272.62
2019-06-01T00:43:27.453Z,101277.66
2019-06-01T00:44:28.828Z,101287.06
2019-06-01T00:45:30.421Z,101286.72
2019-06-01T00:46:31.807Z,101287.20
2019-06-01T00:47:33.199Z,101286.03
2019-06-01T00:48:34.593Z,101276.62
2019-06-01T00:49:35.989Z,101274.41
2019-06-01T00:50:37.526Z,101273.59
2019-06-01T00:51:39.000Z,101263.31
2019-06-01T00:52:40.397Z,101263.31
2019-06-01T00:53:43.209Z,101261.14
2019-06-01T00:54:45.284Z,101267.00
2019-06-01T00:55:47.387Z,101271.90
2019-06-01T00:56:49.694Z,101272.03
2019-06-01T00:57:51.880Z,101280.10
2019-06-01T00:58:53.935Z,101280.45
2019-06-01T00:59:55.490Z,101281.97
2019-06-01T01:00:56.918Z,101285.13
2019-06-01T01:01:58.302Z,101289.17
2019-06-01T01:02:59.803Z,101286.48
2019-06-01T01:04:01.177Z,101285.13
2019-06-01T01:05:09.246Z,101284.79
2019-06-01T01:06:10.660Z,101292.38
2019-06-01T01:07:12.051Z,101295.41
2019-06-01T01:08:13.551Z,101299.44
2019-06-01T01:09:14.939Z,101307.51
2019-06-01T01:10:16.413Z,101307.51
2019-06-01T01:11:18.009Z,101303.12
2019-06-01T01:12:19.389Z,101303.12
2019-06-01T01:13:22.692Z,101305.30
2019-06-01T01:14:24.060Z,101308.33
2019-06-01T01:15:25.839Z,101311.02
2019-06-01T01:16:27.370Z,101311.54
2019-06-01T01:17:28.765Z,101318.26
2019-06-01T01:18:30.356Z,101314.58
2019-06-01T01:19:31.736Z,101312.71
2019-06-01T01:20:34.033Z,101314.06
2019-06-01T01:21:35.461Z,101283.75
2019-06-01T01:22:36.847Z,101327.36
2019-06-01T01:23:38.362Z,101322.13
2019-06-01T01:24:39.736Z,101327.84
2019-06-01T01:25:41.149Z,101317.95
2019-06-01T01:26:42.796Z,101320.30
2019-06-01T01:27:44.201Z,101318.95
2019-06-01T01:28:46.702Z,101315.91
2019-06-01T01:29:48.959Z,101313.23
2019-06-01T01:31:02.741Z,101311.88
2019-06-01T01:31:53.811Z,101312.71
2019-06-01T01:32:58.182Z,101313.58
2019-06-01T01:33:59.491Z,101306.84
2019-06-01T01:35:00.897Z,101309.54
2019-06-01T01:36:02.443Z,101312.23
2019-06-01T01:37:04.172Z,101305.64
2019-06-01T01:38:05.589Z,101306.51
2019-06-01T01:39:06.992Z,101307.51
2019-06-01T01:40:09.014Z,101306.99
2019-06-01T01:41:10.415Z,101310.20
2019-06-01T01:42:12.001Z,101315.05
2019-06-01T01:43:13.381Z,101308.50
2019-06-01T01:44:14.780Z,101306.30
2019-06-01T01:45:16.259Z,101303.12
2019-06-01T01:46:17.773Z,101306.81
2019-06-01T01:47:19.286Z,101302.44
2019-06-01T01:48:20.673Z,101302.44
2019-06-01T01:49:25.928Z,101307.47
2019-06-01T01:50:27.420Z,101304.92
2019-06-01T01:51:28.904Z,101311.98
2019-06-01T01:52:30.494Z,101308.81
2019-06-01T01:53:31.873Z,101307.13
2019-06-01T01:54:33.282Z,101303.92
2019-06-01T01:55:34.654Z,101304.09
2019-06-01T01:56:36.208Z,101302.23
2019-06-01T01:57:37.593Z,101301.40
2019-06-01T01:58:40.191Z,101300.05
2019-06-01T01:59:41.586Z,101298.20
2019-06-01T02:00:45.977Z,101300.05
2019-06-01T02:01:47.370Z,101297.72
2019-06-01T02:02:48.797Z,101290.13
2019-06-01T02:03:51.348Z,101282.92
2019-06-01T02:04:53.701Z,101284.27
2019-06-01T02:05:55.162Z,101281.23
2019-06-01T02:06:56.562Z,101290.47
2019-06-01T02:07:59.885Z,101290.98
2019-06-01T02:09:01.828Z,101293.68
2019-06-01T02:10:06.668Z,101289.61
2019-06-01T02:11:08.057Z,101298.20
2019-06-01T02:12:09.443Z,101293.68
2019-06-01T02:13:10.890Z,101291.98
2019-06-01T02:14:12.269Z,101283.58
2019-06-01T02:15:13.644Z,101279.89
2019-06-01T02:16:15.138Z,101286.62
2019-06-01T02:17:16.615Z,101282.58
2019-06-01T02:18:18.028Z,101282.58
2019-06-01T02:19:19.413Z,101287.95
2019-06-01T02:20:20.804Z,101291.47
2019-06-01T02:21:22.219Z,101285.62
2019-06-01T02:22:23.586Z,101287.95
2019-06-01T02:23:25.015Z,101289.65
2019-06-01T02:24:26.404Z,101287.30
2019-06-01T02:25:27.838Z,101286.95
2019-06-01T02:26:29.256Z,101284.27
2019-06-01T02:27:30.667Z,101287.44
2019-06-01T02:28:32.289Z,101287.79
2019-06-01T02:29:33.668Z,101289.30
2019-06-01T02:30:35.213Z,101296.85
2019-06-01T02:31:42.533Z,101292.98
2019-06-01T02:32:39.905Z,101301.88
2019-06-01T02:33:41.552Z,101305.09
2019-06-01T02:34:42.961Z,101308.27
2019-06-01T02:35:44.374Z,101314.15
2019-06-01T02:36:45.782Z,101319.66
2019-06-01T02:37:47.193Z,101312.11
2019-06-01T02:38:48.756Z,101312.46
2019-06-01T02:39:50.232Z,101305.88
2019-06-01T02:40:51.647Z,101304.05
2019-06-01T02:41:54.795Z,101308.43
2019-06-01T02:42:57.181Z,101303.05
2019-06-01T02:43:59.223Z,101311.46
2019-06-01T02:45:01.369Z,101311.12
2019-06-01T02:46:06.731Z,101315.50
2019-06-01T02:47:07.577Z,101320.02
2019-06-01T02:48:09.087Z,101316.84
2019-06-01T02:49:10.636Z,101315.15
2019-06-01T02:50:12.203Z,101311.46
2019-06-01T02:51:13.606Z,101308.77
2019-06-01T02:52:14.976Z,101307.43
2019-06-01T02:53:16.377Z,101310.47
2019-06-01T02:54:17.795Z,101307.91
2019-06-01T02:55:19.309Z,101316.84
2019-06-01T02:56:20.717Z,101307.56
2019-06-01T02:57:22.140Z,101308.43
2019-06-01T02:58:23.549Z,101307.56
2019-06-01T02:59:25.082Z,101310.60
2019-06-01T03:00:48.558Z,101305.39
2019-06-01T03:01:57.066Z,101302.36
2019-06-01T03:02:53.595Z,101299.71
2019-06-01T03:03:54.993Z,101305.39
2019-06-01T03:04:57.051Z,101305.19
2019-06-01T03:06:01.371Z,101305.36
2019-06-01T03:07:03.795Z,101309.05
2019-06-01T03:08:07.619Z,101305.84
2019-06-01T03:09:09.433Z,101300.47
2019-06-01T03:10:11.296Z,101307.70
2019-06-01T03:11:14.135Z,101301.94
2019-06-01T03:12:18.049Z,101305.02
2019-06-01T03:13:21.340Z,101303.29
2019-06-01T03:14:27.040Z,101304.15
2019-06-01T03:15:31.264Z,101302.32
2019-06-01T03:16:39.922Z,101305.84
2019-06-01T03:17:43.383Z,101309.05
2019-06-01T03:18:46.624Z,101298.64
2019-06-01T03:19:50.741Z,101297.43
2019-06-01T03:20:55.709Z,101299.25
2019-06-01T03:22:03.105Z,101294.26
2019-06-01T03:23:05.803Z,101294.09
2019-06-01T03:24:13.030Z,101293.74
2019-06-01T03:25:14.497Z,101285.20
2019-06-01T03:26:16.652Z,101293.61
2019-06-01T03:27:21.057Z,101291.57
2019-06-01T03:28:25.568Z,101291.57
2019-06-01T03:29:29.785Z,101294.26
2019-06-01T03:30:44.779Z,101298.29
2019-06-01T03:31:43.638Z,101294.26
2019-06-01T03:32:46.188Z,101292.40
2019-06-01T03:33:47.553Z,101296.57
2019-06-01T03:34:48.932Z,101289.12
2019-06-01T03:35:50.330Z,101294.50
2019-06-01T03:36:51.923Z,101295.02
2019-06-01T03:37:53.415Z,101289.43
2019-06-01T03:38:54.809Z,101289.43
2019-06-01T03:39:56.192Z,101291.77
2019-06-01T03:40:57.685Z,101294.33
2019-06-01T03:42:00.979Z,101286.40
2019-06-01T03:43:04.297Z,101291.77
2019-06-01T03:44:06.559Z,101280.54
2019-06-01T03:45:08.169Z,101286.91
2019-06-01T03:46:09.558Z,101280.33
2019-06-01T03:47:11.864Z,101284.36
2019-06-01T03:48:13.640Z,101277.64
2019-06-01T03:49:15.041Z,101277.64
2019-06-01T03:50:16.421Z,101276.30
2019-06-01T03:51:17.843Z,101270.92
2019-06-01T03:52:19.362Z,101273.13
2019-06-01T03:53:20.748Z,101271.78
2019-06-01T03:54:22.133Z,101270.09
2019-06-01T03:55:23.519Z,101268.23
2019-06-01T03:56:25.007Z,101265.20
2019-06-01T03:57:26.594Z,101267.89
2019-06-01T03:58:27.972Z,101260.83
2019-06-01T03:59:29.487Z,101263.52
2019-06-01T04:00:30.996Z,101261.34
2019-06-01T04:01:32.423Z,101261.83
2019-06-01T04:02:33.997Z,101260.48
2019-06-01T04:03:35.444Z,101258.79
2019-06-01T04:04:36.941Z,101260.13
2019-06-01T04:05:38.328Z,101257.45
2019-06-01T04:06:39.826Z,101255.62
2019-06-01T04:07:41.253Z,101254.76
2019-06-01T04:08:42.632Z,101253.94
2019-06-01T04:09:44.032Z,101249.04
2019-06-01T04:10:45.414Z,101251.08
2019-06-01T04:11:46.820Z,101249.39
2019-06-01T04:12:48.425Z,101252.42
2019-06-01T04:13:49.841Z,101255.11
2019-06-01T04:14:51.235Z,101252.77
2019-06-01T04:15:53.824Z,101258.14
2019-06-01T04:16:55.372Z,101252.97
2019-06-01T04:17:56.946Z,101253.31
2019-06-01T04:18:58.368Z,101252.45
2019-06-01T04:19:59.720Z,101252.80
2019-06-01T04:21:02.418Z,101252.31
2019-06-01T04:22:08.122Z,101248.12
2019-06-01T04:23:10.235Z,101248.45
2019-06-01T04:24:12.336Z,101249.19
2019-06-01T04:25:13.924Z,101252.73
2019-06-01T04:26:16.527Z,101244.16
2019-06-01T04:27:19.020Z,101247.70
2019-06-01T04:28:20.779Z,101237.30
2019-06-01T04:29:22.198Z,101238.98
2019-06-01T04:30:25.406Z,101238.98
2019-06-01T04:31:26.917Z,101237.16
2019-06-01T04:32:28.436Z,101242.36
2019-06-01T04:33:29.967Z,101240.53
2019-06-01T04:34:31.522Z,101230.61
2019-06-01T04:35:33.008Z,101232.30
2019-06-01T04:36:34.398Z,101236.19
2019-06-01T04:37:35.910Z,101236.53
2019-06-01T04:38:37.538Z,101231.50
2019-06-01T04:39:38.919Z,101235.53
2019-06-01T04:40:40.328Z,101241.09
2019-06-01T04:41:41.810Z,101235.22
2019-06-01T04:42:43.313Z,101237.39
2019-06-01T04:43:46.106Z,101241.28
2019-06-01T04:44:47.506Z,101236.25
2019-06-01T04:45:48.892Z,101235.73
2019-06-01T04:46:50.277Z,101230.36
2019-06-01T04:47:51.681Z,101228.88
2019-06-01T04:48:53.276Z,101227.53
2019-06-01T04:49:54.657Z,101226.53
2019-06-01T04:50:56.056Z,101221.98
2019-06-01T04:51:57.542Z,101218.30
2019-06-01T04:52:59.072Z,101212.43
2019-06-01T04:54:00.698Z,101220.84
2019-06-01T04:55:05.089Z,101213.12
2019-06-01T04:56:07.002Z,101214.46
2019-06-01T04:57:08.910Z,101215.81
2019-06-01T04:58:11.076Z,101215.33
2019-06-01T04:59:13.059Z,101214.80
2019-06-01T05:00:26.039Z,101218.50
2019-06-01T05:01:19.218Z,101218.36
2019-06-01T05:02:20.629Z,101213.46
2019-06-01T05:03:22.147Z,101209.42
2019-06-01T05:04:23.700Z,101209.95
2019-06-01T05:05:25.156Z,101208.08
2019-06-01T05:06:26.600Z,101205.39
2019-06-01T05:07:27.988Z,101205.71
2019-06-01T05:08:29.480Z,101210.43
2019-06-01T05:09:30.913Z,101209.08
2019-06-01T05:10:32.401Z,101210.09
2019-06-01T05:11:33.889Z,101208.88
2019-06-01T05:12:36.370Z,101208.40
2019-06-01T05:13:37.889Z,101194.58
2019-06-01T05:14:39.281Z,101210.40
2019-06-01T05:15:40.674Z,101209.05
2019-06-01T05:16:42.171Z,101201.98
2019-06-01T05:17:43.563Z,101208.71
2019-06-01T05:18:44.948Z,101201.12
2019-06-01T05:19:46.622Z,101197.75
2019-06-01T05:20:48.106Z,101201.78
2019-06-01T05:21:49.605Z,101205.34
2019-06-01T05:22:50.983Z,101203.65
2019-06-01T05:23:52.497Z,101198.75
2019-06-01T05:24:54.126Z,101205.65
2019-06-01T05:25:55.513Z,101194.89
2019-06-01T05:26:56.905Z,101201.27
2019-06-01T05:27:58.331Z,101198.59
2019-06-01T05:28:59.855Z,101199.93
2019-06-01T05:30:01.257Z,101199.59
2019-06-01T05:31:03.034Z,101202.76
2019-06-01T05:32:04.431Z,101204.96
2019-06-01T05:33:21.379Z,101201.93
2019-06-01T05:34:10.127Z,101204.62
2019-06-01T05:35:11.869Z,101197.04
2019-06-01T05:36:14.285Z,101199.72
2019-06-01T05:37:16.655Z,101199.37
2019-06-01T05:38:18.584Z,101194.52
2019-06-01T05:39:20.150Z,101202.59
2019-06-01T05:40:21.553Z,101196.86
2019-06-01T05:41:22.935Z,101197.34
2019-06-01T05:42:24.440Z,101192.49
2019-06-01T05:43:25.831Z,101199.55
2019-06-01T05:44:27.329Z,101197.70
2019-06-01T05:45:28.814Z,101196.86
2019-06-01T05:46:30.221Z,101195.52
2019-06-01T05:47:31.742Z,101187.59
2019-06-01T05:48:33.155Z,101192.83
2019-06-01T05:49:34.592Z,101192.83
2019-06-01T05:50:36.124Z,101188.45
2019-06-01T05:51:37.491Z,101184.77
2019-06-01T05:52:38.897Z,101188.45
2019-06-01T05:53:40.384Z,101182.08
2019-06-01T05:54:41.789Z,101189.28
2019-06-01T05:55:43.406Z,101184.77
2019-06-01T05:56:44.922Z,101182.56
2019-06-01T05:57:46.529Z,101177.70
2019-06-01T05:58:47.948Z,101188.80
2019-06-01T05:59:49.363Z,101185.42
2019-06-01T06:00:50.798Z,101186.11
2019-06-01T06:01:52.287Z,101181.56
2019-06-01T06:02:53.777Z,101177.53
2019-06-01T06:03:55.165Z,101186.45
2019-06-01T06:04:56.553Z,101182.08
2019-06-01T06:05:58.247Z,101181.08
2019-06-01T06:06:59.721Z,101177.39
2019-06-01T06:08:01.100Z,101179.08
2019-06-01T06:09:05.785Z,101169.98
2019-06-01T06:10:07.481Z,101171.70
2019-06-01T06:11:08.997Z,101180.11
2019-06-01T06:12:11.241Z,101177.11
2019-06-01T06:13:13.347Z,101181.83
2019-06-01T06:14:15.488Z,101173.09
2019-06-01T06:15:17.625Z,101179.02
2019-06-01T06:16:20.721Z,101175.16
2019-06-01T06:17:24.297Z,101172.16
2019-06-01T06:18:25.893Z,101166.80
2019-06-01T06:19:27.443Z,101173.20
2019-06-01T06:20:28.829Z,101172.06
2019-06-01T06:21:30.407Z,101173.57
2019-06-01T06:22:31.792Z,101169.59
2019-06-01T06:23:33.300Z,101172.30
2019-06-01T06:24:34.753Z,101174.50
2019-06-01T06:25:38.384Z,101161.59
2019-06-01T06:26:39.595Z,101165.98
2019-06-01T06:27:40.979Z,101160.62
2019-06-01T06:28:42.373Z,101160.30
2019-06-01T06:29:43.761Z,101155.80
2019-06-01T06:30:45.149Z,101154.95
2019-06-01T06:31:46.757Z,101151.48
2019-06-01T06:32:48.242Z,101150.98
2019-06-01T06:33:56.689Z,101145.64
2019-06-01T06:34:53.049Z,101147.01
2019-06-01T06:35:56.249Z,101154.58
2019-06-01T06:36:57.668Z,101152.76
2019-06-01T06:37:59.129Z,101146.38
2019-06-01T06:39:00.533Z,101140.33
2019-06-01T06:40:04.219Z,101138.84
2019-06-01T06:41:05.608Z,101142.55
2019-06-01T06:42:07.043Z,101137.52
2019-06-01T06:43:19.115Z,101138.86
2019-06-01T06:44:12.988Z,101132.32
2019-06-01T06:45:14.647Z,101134.69
2019-06-01T06:46:16.593Z,101134.17
2019-06-01T06:47:18.806Z,101139.22
2019-06-01T06:48:21.282Z,101133.50
2019-06-01T06:49:23.299Z,101135.86
2019-06-01T06:50:27.902Z,101118.20
2019-06-01T06:51:29.288Z,101126.28
2019-06-01T06:52:30.914Z,101123.30
2019-06-01T06:53:35.257Z,101125.83
2019-06-01T06:54:36.608Z,101121.61
2019-06-01T06:55:38.086Z,101119.92
2019-06-01T06:56:39.584Z,101122.95
2019-06-01T06:57:41.113Z,101125.50
2019-06-01T06:58:42.499Z,101122.62
2019-06-01T06:59:44.906Z,101119.59
2019-06-01T07:00:46.278Z,101117.56
2019-06-01T07:01:47.782Z,101119.77
2019-06-01T07:02:49.347Z,101117.91
2019-06-01T07:03:50.724Z,101119.95
2019-06-01T07:04:52.129Z,101122.98
2019-06-01T07:05:53.618Z,101118.61
2019-06-01T07:06:55.026Z,101118.94
2019-06-01T07:07:56.432Z,101120.63
2019-06-01T07:08:57.873Z,101126.17
2019-06-01T07:09:59.385Z,101122.46
2019-06-01T07:11:00.762Z,101123.32
2019-06-01T07:12:02.170Z,101126.35
2019-06-01T07:13:04.762Z,101126.69
2019-06-01T07:14:06.258Z,101133.58
2019-06-01T07:15:07.843Z,101130.88
2019-06-01T07:16:09.226Z,101130.05
2019-06-01T07:17:10.639Z,101133.24
2019-06-01T07:18:12.194Z,101125.67
2019-06-01T07:19:13.592Z,101126.50
2019-06-01T07:20:15.369Z,101128.03
2019-06-01T07:21:17.328Z,101120.28
2019-06-01T07:22:19.732Z,101127.88
2019-06-01T07:23:22.068Z,101120.12
2019-06-01T07:24:23.906Z,101121.28
2019-06-01T07:25:26.779Z,101118.92
2019-06-01T07:26:28.277Z,101121.13
2019-06-01T07:27:29.777Z,101114.88
2019-06-01T07:28:32.377Z,101126.52
2019-06-01T07:29:34.034Z,101113.53
2019-06-01T07:30:49.572Z,101107.65
2019-06-01T07:31:39.742Z,101107.98
2019-06-01T07:32:41.162Z,101111.51
2019-06-01T07:33:42.804Z,101109.67
2019-06-01T07:34:44.185Z,101113.19
2019-06-01T07:35:45.685Z,101105.96
2019-06-01T07:36:47.084Z,101109.14
2019-06-01T07:37:48.484Z,101117.23
2019-06-01T07:38:50.109Z,101117.57
2019-06-01T07:39:51.588Z,101110.83
2019-06-01T07:40:53.004Z,101108.99
2019-06-01T07:41:54.672Z,101115.20
2019-06-01T07:42:56.074Z,101117.08
2019-06-01T07:43:57.741Z,101114.20
2019-06-01T07:44:59.184Z,101103.94
2019-06-01T07:46:00.585Z,101106.11
2019-06-01T07:47:02.088Z,101101.23
2019-06-01T07:48:04.595Z,101103.94
2019-06-01T07:49:06.258Z,101103.75
2019-06-01T07:50:07.875Z,101103.41
2019-06-01T07:51:09.288Z,101097.69
2019-06-01T07:52:13.222Z,101092.29
2019-06-01T07:53:14.008Z,101088.77
2019-06-01T07:54:16.083Z,101095.32
2019-06-01T07:55:17.632Z,101088.43
2019-06-01T07:56:20.326Z,101088.77
2019-06-01T07:57:21.820Z,101083.86
2019-06-01T07:58:24.534Z,101083.86
2019-06-01T07:59:26.389Z,101076.30
2019-06-01T08:00:29.027Z,101081.17
2019-06-01T08:01:31.547Z,101076.63
2019-06-01T08:02:33.869Z,101076.11
2019-06-01T08:03:35.283Z,101073.08
2019-06-01T08:04:52.438Z,101070.38
2019-06-01T08:05:40.970Z,101070.38
2019-06-01T08:06:46.181Z,101068.02
2019-06-01T08:07:45.676Z,101066.67
2019-06-01T08:08:47.090Z,101063.16
2019-06-01T08:09:48.698Z,101060.95
2019-06-01T08:10:50.273Z,101061.13
2019-06-01T08:11:51.690Z,101055.22
2019-06-01T08:12:53.200Z,101049.83
2019-06-01T08:13:54.608Z,101056.56
2019-06-01T08:14:56.044Z,101053.38
2019-06-01T08:15:57.427Z,101055.55
2019-06-01T08:16:58.823Z,101051.70
2019-06-01T08:18:00.215Z,101047.13
2019-06-01T08:19:01.604Z,101044.43
2019-06-01T08:20:05.051Z,101042.07
2019-06-01T08:21:06.461Z,101041.73
2019-06-01T08:22:07.928Z,101046.11
2019-06-01T08:23:09.293Z,101048.48
2019-06-01T08:24:10.844Z,101043.94
2019-06-01T08:25:12.572Z,101041.73
2019-06-01T08:26:14.081Z,101042.26
2019-06-01T08:27:15.475Z,101041.24
2019-06-01T08:28:16.854Z,101043.61
2019-06-01T08:29:18.264Z,101040.91
2019-06-01T08:30:19.690Z,101036.87
2019-06-01T08:31:22.429Z,101034.66
2019-06-01T08:32:24.544Z,101037.88
2019-06-01T08:33:29.561Z,101029.27
2019-06-01T08:34:29.473Z,101034.66
2019-06-01T08:35:31.246Z,101020.84
2019-06-01T08:36:33.876Z,101024.89
2019-06-01T08:37:35.599Z,101025.22
2019-06-01T08:38:37.130Z,101028.44
2019-06-01T08:39:38.546Z,101026.57
2019-06-01T08:40:39.986Z,101028.94
2019-06-01T08:41:41.443Z,101021.36
2019-06-01T08:42:42.835Z,101024.89
2019-06-01T08:43:44.222Z,101024.06
2019-06-01T08:44:45.619Z,101024.89
2019-06-01T08:45:47.122Z,101027.59
2019-06-01T08:46:48.611Z,101025.90
2019-06-01T08:47:50.016Z,101022.19
2019-06-01T08:48:52.401Z,101021.86
2019-06-01T08:49:53.809Z,101030.47
2019-06-01T08:50:55.195Z,101019.16
2019-06-01T08:51:56.644Z,101024.55
2019-06-01T08:52:58.096Z,101024.55
2019-06-01T08:53:59.586Z,101016.13
2019-06-01T08:55:00.977Z,101022.38
2019-06-01T08:56:02.551Z,101021.52
2019-06-01T08:57:04.096Z,101019.84
2019-06-01T08:58:05.508Z,101019.84
2019-06-01T08:59:06.893Z,101018.50
2019-06-01T09:00:10.497Z,101017.33
2019-06-01T09:01:12.017Z,101020.03
2019-06-01T09:02:13.412Z,101017.83
2019-06-01T09:03:14.901Z,101009.89
2019-06-01T09:04:16.299Z,101014.95
2019-06-01T09:05:24.370Z,101013.11
2019-06-01T09:06:21.131Z,101013.27
2019-06-01T09:07:22.514Z,101018.66
2019-06-01T09:08:25.501Z,101018.17
2019-06-01T09:09:27.202Z,101017.83
2019-06-01T09:10:29.238Z,101015.63
2019-06-01T09:11:31.122Z,101016.48
2019-06-01T09:12:33.300Z,101014.28
2019-06-01T09:13:35.485Z,101013.45
2019-06-01T09:14:37.065Z,101011.25
2019-06-01T09:15:38.454Z,101013.45
2019-06-01T09:16:39.886Z,101014.80
2019-06-01T09:17:41.371Z,101016.64
2019-06-01T09:18:42.776Z,101018.33
2019-06-01T09:19:44.270Z,101005.03
2019-06-01T09:20:45.677Z,101006.20
2019-06-01T09:21:47.277Z,101014.28
2019-06-01T09:22:48.760Z,101010.77
2019-06-01T09:23:50.152Z,101015.14
2019-06-01T09:24:53.484Z,101011.09
2019-06-01T09:25:54.936Z,101007.38
2019-06-01T09:26:56.526Z,101007.05
2019-06-01T09:27:58.575Z,101013.11
2019-06-01T09:28:59.972Z,101003.69
2019-06-01T09:30:01.832Z,101010.08
2019-06-01T09:31:05.225Z,101003.34
2019-06-01T09:32:10.889Z,101009.89
2019-06-01T09:33:10.109Z,101003.34
2019-06-01T09:34:11.518Z,100999.30
2019-06-01T09:35:13.000Z,101006.04
2019-06-01T09:36:14.393Z,101001.81
2019-06-01T09:37:15.957Z,101009.07
2019-06-01T09:38:18.460Z,100999.63
2019-06-01T09:39:19.953Z,101011.09
2019-06-01T09:40:21.347Z,101005.84
2019-06-01T09:41:22.853Z,101003.00
2019-06-01T09:42:24.490Z,101008.88
2019-06-01T09:43:26.532Z,101008.39
2019-06-01T09:44:28.825Z,101009.73
2019-06-01T09:45:30.316Z,101007.89
2019-06-01T09:46:32.600Z,101008.72
2019-06-01T09:47:35.657Z,101001.65
2019-06-01T09:48:37.853Z,101006.03
2019-06-01T09:49:39.380Z,101004.19
2019-06-01T09:50:41.157Z,101006.55
2019-06-01T09:51:42.665Z,100999.28
2019-06-01T09:52:44.230Z,101001.83
2019-06-01T09:53:45.630Z,100995.58
2019-06-01T09:54:47.131Z,100988.18
2019-06-01T09:55:48.519Z,101000.30
2019-06-01T09:56:49.914Z,100994.42
2019-06-01T09:57:51.535Z,100995.77
2019-06-01T09:58:53.322Z,100992.55
2019-06-01T09:59:54.734Z,100990.70
2019-06-01T10:00:56.114Z,100990.86
2019-06-01T10:01:57.509Z,100987.98
2019-06-01T10:02:59.050Z,100991.20
2019-06-01T10:04:00.436Z,100987.68
2019-06-01T10:05:01.909Z,100982.78
2019-06-01T10:06:03.681Z,100989.02
2019-06-01T10:07:05.078Z,100979.75
2019-06-01T10:08:06.502Z,100985.14
2019-06-01T10:09:08.184Z,100978.06
2019-06-01T10:10:10.106Z,100978.40
2019-06-01T10:11:11.464Z,100982.78
2019-06-01T10:12:12.973Z,100981.77
2019-06-01T10:13:14.488Z,100985.80
2019-06-01T10:14:15.946Z,100983.63
2019-06-01T10:15:17.432Z,100982.28
2019-06-01T10:16:18.833Z,100980.41
2019-06-01T10:17:20.221Z,100975.55
2019-06-01T10:18:21.784Z,100970.98
2019-06-01T10:19:23.168Z,100973.52
2019-06-01T10:20:24.570Z,100961.38
2019-06-01T10:21:25.946Z,100969.28
2019-06-01T10:22:27.444Z,100966.59
2019-06-01T10:23:30.136Z,100961.19
2019-06-01T10:24:32.951Z,100962.05
2019-06-01T10:25:34.593Z,100956.66
2019-06-01T10:26:36.278Z,100961.53
2019-06-01T10:27:38.903Z,100957.48
2019-06-01T10:28:40.290Z,100955.31
2019-06-01T10:29:42.917Z,100952.95
2019-06-01T10:30:44.476Z,100952.09
2019-06-01T10:31:45.897Z,100953.11
2019-06-01T10:32:47.345Z,100953.11
2019-06-01T10:33:51.401Z,100956.66
2019-06-01T10:34:52.415Z,100950.41
2019-06-01T10:35:53.919Z,100952.28
2019-06-01T10:36:55.400Z,100950.41
2019-06-01T10:37:56.813Z,100948.73
2019-06-01T10:38:58.330Z,100953.44
2019-06-01T10:39:59.741Z,100947.71
2019-06-01T10:41:01.163Z,100946.03
2019-06-01T10:42:03.584Z,100943.67
2019-06-01T10:43:04.989Z,100945.87
2019-06-01T10:44:06.510Z,100940.15
2019-06-01T10:45:08.188Z,100939.29
2019-06-01T10:46:09.598Z,100939.63
2019-06-01T10:47:11.014Z,100936.10
2019-06-01T10:48:12.425Z,100931.20
2019-06-01T10:49:13.933Z,100937.94
2019-06-01T10:50:17.607Z,100929.52
2019-06-01T10:51:18.781Z,100934.42
2019-06-01T10:52:20.186Z,100930.38
2019-06-01T10:53:21.598Z,100930.71
2019-06-01T10:54:23.274Z,100930.19
2019-06-01T10:55:25.817Z,100927.68
2019-06-01T10:56:27.352Z,100923.97
2019-06-01T10:57:28.733Z,100927.68
2019-06-01T10:58:30.196Z,100918.41
2019-06-01T10:59:32.213Z,100924.66
2019-06-01T11:00:39.740Z,100920.08
2019-06-01T11:01:37.880Z,100919.06
2019-06-01T11:02:40.890Z,100919.59
2019-06-01T11:03:42.886Z,100920.94
2019-06-01T11:04:44.425Z,100916.04
2019-06-01T11:05:45.801Z,100916.56
2019-06-01T11:06:48.807Z,100911.17
2019-06-01T11:07:50.485Z,100915.70
2019-06-01T11:08:51.893Z,100908.97
2019-06-01T11:09:53.496Z,100907.62
2019-06-01T11:10:54.914Z,100904.59
2019-06-01T11:11:56.329Z,100903.08
2019-06-01T11:12:57.740Z,100900.55
2019-06-01T11:13:59.149Z,100903.58
2019-06-01T11:15:00.682Z,100903.24
2019-06-01T11:16:02.339Z,100898.70
2019-06-01T11:17:03.831Z,100899.20
2019-06-01T11:18:05.320Z,100896.17
2019-06-01T11:19:06.713Z,100904.09
2019-06-01T11:20:09.341Z,100896.34
2019-06-01T11:21:10.824Z,100891.44
2019-06-01T11:22:12.222Z,100898.84
2019-06-01T11:23:13.601Z,100895.00
2019-06-01T11:24:15.006Z,100890.76
2019-06-01T11:25:16.642Z,100889.08
2019-06-01T11:26:19.038Z,100889.41
2019-06-01T11:27:20.538Z,100884.02
2019-06-01T11:28:21.957Z,100881.32
2019-06-01T11:29:23.332Z,100884.02
2019-06-01T11:30:24.970Z,100878.96
2019-06-01T11:31:27.486Z,100878.96
2019-06-01T11:32:28.890Z,100867.16
2019-06-01T11:33:30.298Z,100867.69
2019-06-01T11:34:31.734Z,100872.88
2019-06-01T11:35:33.152Z,100865.31
2019-06-01T11:36:34.536Z,100865.31
2019-06-01T11:37:36.188Z,100863.44
2019-06-01T11:38:38.506Z,100852.69
2019-06-01T11:39:40.576Z,100865.13
2019-06-01T11:40:42.821Z,100859.23
2019-06-01T11:41:44.812Z,100867.66
2019-06-01T11:42:46.396Z,100864.44
2019-06-01T11:43:47.806Z,100862.77
2019-06-01T11:44:49.327Z,100863.84
2019-06-01T11:45:57.108Z,100861.13